This is the latest recevied weather packets stored in our database for station/object JQ2GLP-13. If no packets are shown the sender has not sent any weather packets the latest 10 day(s).
| Time | Temp. | Humidity | Pressure | Rain* | Wind** | Luminosity | Snow |
|---|---|---|---|---|---|---|---|
| 1777766830 | 20.56° C | 50% | 1007.2 hPa | 0 mm | - | - | - |
| 1777756031 | 15.56° C | 64% | 1007.3 hPa | 0 mm | - | - | - |
| 1777754231 | 15.56° C | 63% | 1006.8 hPa | 0 mm | - | - | - |
| 1777739832 | 16.67° C | 53% | 1006.6 hPa | 0 mm | - | - | - |
| 1777736233 | 17.78° C | 51% | 1007 hPa | 0 mm | - | - | - |
| 1777734433 | 17.78° C | 50% | 1006.9 hPa | 0 mm | - | - | - |
| 1777730834 | 17.78° C | 49% | 1007.1 hPa | 0 mm | - | - | - |
| 1777725433 | 18.33° C | 46% | 1007.4 hPa | 0 mm | - | - | - |
| 1777720034 | 20.56° C | 40% | 1006.5 hPa | 0 mm | - | - | - |
| 1777718234 | 21.11° C | 36% | 1006 hPa | 0 mm | - | - | - |
| 1777716433 | 21.67° C | 34% | 1005.3 hPa | 0 mm | - | - | - |
| 1777714634 | 22.22° C | 32% | 1005.1 hPa | 0 mm | - | - | - |
| 1777712833 | 22.78° C | 32% | 1004.8 hPa | 0 mm | - | - | - |
| 1777711033 | 23.33° C | 31% | 1004.2 hPa | 0 mm | - | - | - |
| 1777709233 | 23.89° C | 29% | 1003.8 hPa | 0 mm | - | - | - |
| 1777707434 | 23.89° C | 28% | 1003.4 hPa | 0 mm | - | - | - |
| 1777705634 | 24.44° C | 28% | 1003 hPa | 0 mm | - | - | - |
| 1777703833 | 25° C | 28% | 1002.7 hPa | 0 mm | - | - | - |
| 1777702035 | 25° C | 28% | 1002.5 hPa | 0 mm | - | - | - |
| 1777700234 | 25.56° C | 28% | 1002.5 hPa | 0 mm | - | - | - |
| 1777698433 | 25.56° C | 27% | 1002.4 hPa | 0 mm | - | - | - |
| 1777696635 | 25.56° C | 30% | 1002.4 hPa | 0 mm | - | - | - |
| 1777694834 | 25° C | 30% | 1002.5 hPa | 0 mm | - | - | - |
| 1777693035 | 24.44° C | 30% | 1002.4 hPa | 0 mm | - | - | - |
| 1777691234 | 23.89° C | 31% | 1002.7 hPa | 0 mm | - | - | - |
* Rain latest hour (hover to see other rain measurements)
** Current wind speed in m/s (hover to see current wind gust speed)